Tropical Cyclones
[Index]
Main Index Home Page Stock Weather Photos Extreme Storms Discussion Storm News and Storm Chasing Reports Tropical Cyclones / Hurricanes / Typhoons Weather Data and Links Wild Fires / Bushfires Weather Observation Techniques Weather Picture Catalogue Tornado Pictures and Reports Stock Video Footage and DVDs for sale
Season 1972-1973 Tropical Cyclone PAULA Track Map
Season 1972-1973 Summaries: [BoM-AU] [JTWC-AU] [JTWC-SIO] [JTWC-SPAC] [JTWC-SH]
<<- Previous TC | BoM 1972-1973 Season | Next TC ->>

click for intensity scale information  Lat/long Grid: Show Hide

 Date Labels: Show Hide

Bureau of Meteorology Tropical Cyclone Data

Name: PAULA
Number: 508 / 197273_12

26 Mar 1973 00:00 UTC to 01 Apr 1973 00:00 UTC

    date/time    lat    long    hPa   cat  kts
1973-03-26 00    8.6   103.5   1006                     
1973-03-26 03    8.7   103.1   1006                     
1973-03-26 06    8.8   102.8   1006                     
1973-03-26 09    8.9   102.4   1005                     
1973-03-26 12    9.0   102.0   1005                     
1973-03-26 15    9.2   101.6   1005                     
1973-03-26 18    9.4   101.2   1005                     
1973-03-26 21    9.6   100.8   1004                     
1973-03-27 00    9.9   100.4   1004                     
1973-03-27 03   10.0   100.1   1004                     
1973-03-27 06   10.2    99.9   1003                     
1973-03-27 09   10.4    99.6   1003                     
1973-03-27 12   10.6    99.3   1002                     
1973-03-27 15   10.8    98.9   1002                     
1973-03-27 18   11.0    98.5   1002                     
1973-03-27 21   11.2    98.2   1001                     
1973-03-28 00   11.4    97.8   1001                     
1973-03-28 03   11.6    97.6   1000                     
1973-03-28 06   11.9    97.2    999                     
1973-03-28 09   12.1    96.9    999                     
1973-03-28 12   12.3    96.6    999                     
1973-03-28 15   12.5    96.3    999                     
1973-03-28 18   12.8    95.9    999                     
1973-03-28 21   13.0    95.5    998                     
1973-03-29 00   13.3    95.2    997                     
1973-03-29 03   13.5    94.9    997                     
1973-03-29 06   13.7    94.7    997                     
1973-03-29 09   13.9    94.5    997                     
1973-03-29 12   14.1    94.3    997                     
1973-03-29 15   14.3    94.0    997                     
1973-03-29 18   14.6    93.6    997                     
1973-03-29 21   14.9    93.3    997                     
1973-03-30 00   15.1    93.0    997                     
1973-03-30 03   15.3    92.7    997                     
1973-03-30 06   15.4    92.4    998                     
1973-03-30 09   15.6    92.1    998                     
1973-03-30 12   15.8    91.8    999                     
1973-03-30 15   15.9    91.4    999                     
1973-03-30 18   16.0    91.0   1000                     
1973-03-30 21   16.0    90.6   1000                     
1973-03-31 00   16.0    90.2   1001                     
1973-03-31 03   16.0    89.8   1001                     
1973-03-31 06   15.9    89.4   1001                     
1973-03-31 09   15.7    88.9   1001                     
1973-03-31 12   15.5    88.5   1001                     
1973-03-31 15   15.3    88.0   1001                     
1973-03-31 18   15.0    87.5   1001                     
1973-03-31 21   14.5    87.0   1001                     
1973-04-01 00   14.0    86.5   1001                     
Winds are 10-min average.

Tropical cyclone tracks developed by Michael Bath using data from the Bureau of Meteorology and Google Maps.


[Australian Severe Weather index] [Copyright Notice] [Email Contacts] [Search This Site] [Privacy Policy]
Document: tropical_cyclone_paula.htm Updated: 30 May 2013